createdAt,value
2023-04-02T00:00:23.698Z,96834.00
2023-04-02T00:03:12.674Z,96836.03
2023-04-02T00:06:02.622Z,96844.75
2023-04-02T00:08:54.383Z,96839.66
2023-04-02T00:11:46.611Z,96836.03
2023-04-02T00:14:36.583Z,96839.00
2023-04-02T00:17:27.303Z,96847.38
2023-04-02T00:20:20.028Z,96855.72
2023-04-02T00:23:12.884Z,96852.59
2023-04-02T00:26:01.884Z,96861.22
2023-04-02T00:28:51.902Z,96852.84
2023-04-02T00:31:46.483Z,96856.09
2023-04-02T00:34:39.257Z,96862.53
2023-04-02T00:37:38.904Z,96863.44
2023-04-02T00:40:32.922Z,96869.97
2023-04-02T00:43:30.594Z,96867.47
2023-04-02T00:46:25.250Z,96865.53
2023-04-02T00:49:25.794Z,96869.50
2023-04-02T00:52:19.671Z,96873.56
2023-04-02T00:55:17.837Z,96868.75
2023-04-02T00:58:18.428Z,96873.16
2023-04-02T01:01:20.106Z,96873.38
2023-04-02T01:04:34.113Z,96875.00
2023-04-02T01:07:43.896Z,96882.00
2023-04-02T01:11:00.711Z,96885.03
2023-04-02T01:14:03.743Z,96885.19
2023-04-02T01:17:01.619Z,96887.47
2023-04-02T01:20:38.306Z,96886.78
2023-04-02T01:23:39.689Z,96885.16
2023-04-02T01:26:53.044Z,96892.50
2023-04-02T01:29:53.399Z,96893.66
2023-04-02T01:32:43.804Z,96897.72
2023-04-02T01:35:41.514Z,96897.84
2023-04-02T01:38:42.493Z,96895.91
2023-04-02T01:41:44.051Z,96900.22
2023-04-02T01:44:40.507Z,96902.03
2023-04-02T01:47:30.895Z,96909.47
2023-04-02T01:50:31.755Z,96906.75
2023-04-02T01:53:25.020Z,96905.72
2023-04-02T01:56:14.641Z,96906.72
2023-04-02T01:59:06.002Z,96912.28
2023-04-02T02:02:03.804Z,96917.94
2023-04-02T02:04:56.228Z,96913.59
2023-04-02T02:07:46.584Z,96918.28
2023-04-02T02:10:40.844Z,96905.78
2023-04-02T02:13:32.096Z,96906.25
2023-04-02T02:16:21.959Z,96918.81
2023-04-02T02:19:25.447Z,96918.47
2023-04-02T02:22:25.975Z,96920.28
2023-04-02T02:25:20.181Z,96924.16
2023-04-02T02:28:16.682Z,96915.69
2023-04-02T02:31:13.627Z,96920.16
2023-04-02T02:34:10.165Z,96921.63
2023-04-02T02:37:07.759Z,96928.91
2023-04-02T02:40:01.767Z,96937.97
2023-04-02T02:42:58.664Z,96945.91
2023-04-02T02:45:49.909Z,96942.63
2023-04-02T02:48:42.000Z,96943.63
2023-04-02T02:51:43.275Z,96945.88
2023-04-02T02:54:39.735Z,96944.28
2023-04-02T02:57:34.819Z,96944.59
2023-04-02T03:00:25.096Z,96949.69
2023-04-02T03:03:21.827Z,96953.31
2023-04-02T03:06:20.659Z,96963.78
2023-04-02T03:09:27.338Z,96962.53
2023-04-02T03:12:37.649Z,96967.19
2023-04-02T03:15:36.692Z,96967.53
2023-04-02T03:18:44.816Z,96977.59
2023-04-02T03:21:43.620Z,96969.59
2023-04-02T03:24:42.319Z,96973.56
2023-04-02T03:27:39.661Z,96974.09
2023-04-02T03:30:39.656Z,96977.84
2023-04-02T03:33:36.870Z,96979.78
2023-04-02T03:36:34.804Z,96989.75
2023-04-02T03:39:34.428Z,96985.53
2023-04-02T03:42:26.320Z,96988.84
2023-04-02T03:45:25.373Z,96995.31
2023-04-02T03:48:25.853Z,96998.13
2023-04-02T03:51:21.713Z,96991.69
2023-04-02T03:54:17.332Z,96997.91
2023-04-02T03:57:10.628Z,97002.78
2023-04-02T04:00:09.231Z,97004.06
2023-04-02T04:03:14.033Z,96996.41
2023-04-02T04:06:09.434Z,97013.59
2023-04-02T04:09:08.173Z,97010.16
2023-04-02T04:12:15.955Z,97010.75
2023-04-02T04:15:15.437Z,97018.56
2023-04-02T04:18:19.554Z,97020.75
2023-04-02T04:21:30.903Z,97026.09
2023-04-02T04:24:28.867Z,97032.88
2023-04-02T04:27:33.806Z,97033.78
2023-04-02T04:30:34.802Z,97037.34
2023-04-02T04:33:34.592Z,97038.47
2023-04-02T04:36:33.391Z,97042.97
2023-04-02T04:39:41.246Z,97057.34
2023-04-02T04:42:35.426Z,97054.16
2023-04-02T04:45:47.598Z,97065.34
2023-04-02T04:48:53.152Z,97061.25
2023-04-02T04:51:49.084Z,97069.09
2023-04-02T04:54:41.101Z,97073.47
2023-04-02T04:57:36.426Z,97076.47
2023-04-02T05:00:43.271Z,97071.50
2023-04-02T05:03:39.257Z,97075.84
2023-04-02T05:06:41.470Z,97088.00
2023-04-02T05:09:37.194Z,97090.75
2023-04-02T05:12:37.431Z,97090.28
2023-04-02T05:15:40.121Z,97092.09
2023-04-02T05:18:36.458Z,97090.03
2023-04-02T05:21:38.877Z,97100.56
2023-04-02T05:24:54.579Z,97096.97
2023-04-02T05:27:53.577Z,97108.22
2023-04-02T05:30:52.544Z,97110.28
2023-04-02T05:33:48.713Z,97109.94
2023-04-02T05:36:40.531Z,97113.94
2023-04-02T05:39:30.304Z,97114.97
2023-04-02T05:42:25.687Z,97129.06
2023-04-02T05:45:31.241Z,97126.63
2023-04-02T05:48:28.945Z,97124.31
2023-04-02T05:51:25.889Z,97132.59
2023-04-02T05:54:26.193Z,97130.59
2023-04-02T05:57:39.369Z,97132.50
2023-04-02T06:00:53.512Z,97137.06
2023-04-02T06:03:55.428Z,97146.88
2023-04-02T06:06:54.906Z,97148.59
2023-04-02T06:09:52.151Z,97149.75
2023-04-02T06:12:48.544Z,97156.22
2023-04-02T06:15:40.842Z,97154.03
2023-04-02T06:18:38.772Z,97156.47
2023-04-02T06:21:28.453Z,97156.78
2023-04-02T06:24:24.202Z,97159.72
2023-04-02T06:27:22.690Z,97162.28
2023-04-02T06:30:20.395Z,97162.63
2023-04-02T06:33:15.534Z,97166.16
2023-04-02T06:36:12.461Z,97165.66
2023-04-02T06:39:09.837Z,97177.81
2023-04-02T06:42:05.418Z,97178.28
2023-04-02T06:45:24.821Z,97177.94
2023-04-02T06:48:38.827Z,97191.41
2023-04-02T06:51:31.379Z,97198.53
2023-04-02T06:54:21.678Z,97197.00
2023-04-02T06:57:16.300Z,97199.81
2023-04-02T07:00:24.959Z,97203.41
2023-04-02T07:03:21.403Z,97203.38
2023-04-02T07:06:17.622Z,97209.16
2023-04-02T07:09:08.152Z,97214.00
2023-04-02T07:12:00.598Z,97216.53
2023-04-02T07:14:49.918Z,97212.25
2023-04-02T07:17:40.726Z,97214.34
2023-04-02T07:20:33.355Z,97216.34
2023-04-02T07:23:27.604Z,97211.50
2023-04-02T07:26:20.303Z,97224.72
2023-04-02T07:29:10.285Z,97222.53
2023-04-02T07:31:59.210Z,97233.00
2023-04-02T07:34:49.492Z,97238.22
2023-04-02T07:37:39.021Z,97243.75
2023-04-02T07:40:27.939Z,97248.97
2023-04-02T07:43:16.826Z,97251.56
2023-04-02T07:46:07.181Z,97249.19
2023-04-02T07:48:56.060Z,97258.94
2023-04-02T07:51:46.888Z,97260.69
2023-04-02T07:54:38.196Z,97259.47
2023-04-02T07:57:27.459Z,97265.06
2023-04-02T08:00:18.207Z,97267.09
2023-04-02T08:03:07.182Z,97272.88
2023-04-02T08:05:59.740Z,97275.59
2023-04-02T08:08:50.032Z,97278.63
2023-04-02T08:11:38.882Z,97281.91
2023-04-02T08:14:27.705Z,97291.75
2023-04-02T08:17:16.567Z,97295.31
2023-04-02T08:20:08.088Z,97301.41
2023-04-02T08:22:58.198Z,97301.69
2023-04-02T08:25:48.570Z,97310.66
2023-04-02T08:28:37.898Z,97301.63
2023-04-02T08:31:27.077Z,97313.53
2023-04-02T08:34:15.922Z,97311.72
2023-04-02T08:37:04.773Z,97314.22
2023-04-02T08:39:53.707Z,97325.97
2023-04-02T08:42:53.898Z,97326.63
2023-04-02T08:46:00.834Z,97332.59
2023-04-02T08:48:58.733Z,97330.59
2023-04-02T08:51:48.704Z,97330.03
2023-04-02T08:54:38.583Z,97331.81
2023-04-02T08:57:41.601Z,97328.84
2023-04-02T09:00:38.194Z,97336.97
2023-04-02T09:03:33.867Z,97334.25
2023-04-02T09:06:24.162Z,97338.19
2023-04-02T09:09:16.666Z,97341.44
2023-04-02T09:12:08.363Z,97348.34
2023-04-02T09:15:18.452Z,97346.44
2023-04-02T09:18:17.713Z,97345.66
2023-04-02T09:21:31.496Z,97353.38
2023-04-02T09:24:20.478Z,97359.38
2023-04-02T09:27:21.501Z,97358.25
2023-04-02T09:30:29.607Z,97368.94
2023-04-02T09:33:20.253Z,97370.59
2023-04-02T09:36:33.993Z,97370.81
2023-04-02T09:39:26.966Z,97379.09
2023-04-02T09:42:34.058Z,97392.63
2023-04-02T09:45:26.742Z,97395.72
2023-04-02T09:48:30.435Z,97400.19
2023-04-02T09:51:23.136Z,97404.75
2023-04-02T09:54:17.758Z,97404.59
2023-04-02T09:57:06.936Z,97406.41
2023-04-02T10:00:30.669Z,97405.91
2023-04-02T10:03:27.701Z,97418.75
2023-04-02T10:06:17.724Z,97434.16
2023-04-02T10:09:27.134Z,97438.34
2023-04-02T10:12:16.976Z,97436.31
2023-04-02T10:15:08.434Z,97444.72
2023-04-02T10:18:09.262Z,97453.44
2023-04-02T10:21:04.452Z,97454.59
2023-04-02T10:23:53.473Z,97450.91
2023-04-02T10:26:57.869Z,97458.28
2023-04-02T10:30:05.410Z,97457.94
2023-04-02T10:33:02.200Z,97466.78
2023-04-02T10:36:07.785Z,97469.97
2023-04-02T10:39:05.200Z,97476.69
2023-04-02T10:42:03.020Z,97479.03
2023-04-02T10:45:02.436Z,97482.88
2023-04-02T10:48:03.024Z,97494.53
2023-04-02T10:51:02.149Z,97496.47
2023-04-02T10:54:03.860Z,97500.75
2023-04-02T10:56:55.063Z,97507.16
2023-04-02T10:59:52.459Z,97510.66
2023-04-02T11:02:49.962Z,97519.31
2023-04-02T11:05:47.254Z,97516.09
2023-04-02T11:08:44.967Z,97531.41
2023-04-02T11:11:41.377Z,97527.28
2023-04-02T11:14:32.686Z,97537.00
2023-04-02T11:17:22.822Z,97544.69
2023-04-02T11:20:57.290Z,97541.63
2023-04-02T11:24:01.270Z,97553.03
2023-04-02T11:26:50.912Z,97546.50
2023-04-02T11:29:42.175Z,97552.44
2023-04-02T11:32:42.639Z,97548.78
2023-04-02T11:35:40.982Z,97550.25
2023-04-02T11:38:55.016Z,97566.38
2023-04-02T11:42:23.522Z,97567.34
2023-04-02T11:45:53.721Z,97571.47
2023-04-02T11:48:43.193Z,97575.16
2023-04-02T11:51:59.230Z,97577.41
2023-04-02T11:55:06.770Z,97581.41
2023-04-02T11:58:36.728Z,97591.47
2023-04-02T12:02:04.138Z,97592.59
2023-04-02T12:05:28.221Z,97600.22
2023-04-02T12:08:30.468Z,97603.25
2023-04-02T12:11:31.453Z,97611.38
2023-04-02T12:14:46.925Z,97614.34
2023-04-02T12:17:39.324Z,97619.47
2023-04-02T12:20:31.738Z,97613.16
2023-04-02T12:23:25.071Z,97632.59
2023-04-02T12:26:37.117Z,97628.28
2023-04-02T12:29:27.869Z,97637.13
2023-04-02T12:32:27.807Z,97631.75
2023-04-02T12:35:31.814Z,97639.22
2023-04-02T12:38:24.982Z,97652.16
2023-04-02T12:41:25.096Z,97645.16
2023-04-02T12:44:17.579Z,97649.63
2023-04-02T12:47:06.636Z,97647.91
2023-04-02T12:50:00.688Z,97662.28
2023-04-02T12:52:54.956Z,97655.31
2023-04-02T12:55:49.472Z,97658.16
2023-04-02T12:58:41.469Z,97659.44
2023-04-02T13:01:33.947Z,97663.88
2023-04-02T13:04:22.999Z,97663.56
2023-04-02T13:07:20.378Z,97668.47
2023-04-02T13:10:26.697Z,97673.31
2023-04-02T13:13:22.630Z,97676.72
2023-04-02T13:16:30.067Z,97677.84
2023-04-02T13:19:32.134Z,97679.31
2023-04-02T13:22:33.165Z,97689.28
2023-04-02T13:25:30.873Z,97689.44
2023-04-02T13:28:19.904Z,97696.97
2023-04-02T13:31:17.248Z,97698.00
2023-04-02T13:34:06.542Z,97700.16
2023-04-02T13:36:57.205Z,97697.09
2023-04-02T13:39:48.149Z,97697.13
2023-04-02T13:42:37.311Z,97695.28
2023-04-02T13:45:30.463Z,97703.22
2023-04-02T13:48:19.465Z,97700.88
2023-04-02T13:51:09.899Z,97715.25
2023-04-02T13:53:59.643Z,97716.47
2023-04-02T13:56:50.149Z,97731.06
2023-04-02T13:59:39.086Z,97723.34
2023-04-02T14:02:28.470Z,97730.22
2023-04-02T14:05:33.807Z,97733.69
2023-04-02T14:08:34.651Z,97743.56
2023-04-02T14:11:42.515Z,97745.88
2023-04-02T14:14:56.941Z,97755.13
2023-04-02T14:18:05.894Z,97772.84
2023-04-02T14:21:11.548Z,97774.38
2023-04-02T14:24:19.035Z,97775.38
2023-04-02T14:27:23.665Z,97775.06
2023-04-02T14:30:23.999Z,97770.13
2023-04-02T14:33:30.094Z,97774.88
2023-04-02T14:36:31.060Z,97767.78
2023-04-02T14:39:35.914Z,97778.06
2023-04-02T14:42:34.249Z,97775.06
2023-04-02T14:45:53.329Z,97780.06
2023-04-02T14:48:54.344Z,97778.75
2023-04-02T14:51:50.092Z,97783.81
2023-04-02T14:54:50.057Z,97779.72
2023-04-02T14:57:44.687Z,97787.00
2023-04-02T15:00:42.420Z,97788.03
2023-04-02T15:03:43.358Z,97800.94
2023-04-02T15:06:37.890Z,97795.66
2023-04-02T15:09:35.016Z,97804.59
2023-04-02T15:12:31.025Z,97818.56
2023-04-02T15:15:40.346Z,97823.56
2023-04-02T15:18:31.129Z,97822.38
2023-04-02T15:25:03.888Z,97840.88
2023-04-02T15:28:16.069Z,97840.28
2023-04-02T15:31:14.416Z,97838.56
2023-04-02T15:34:28.442Z,97838.19
2023-04-02T15:37:29.008Z,97848.53
2023-04-02T15:40:39.404Z,97844.28
2023-04-02T15:43:32.681Z,97858.31
2023-04-02T15:46:33.600Z,97858.22
2023-04-02T15:49:43.155Z,97860.84
2023-04-02T15:52:44.912Z,97868.31
2023-04-02T15:55:43.527Z,97871.19
2023-04-02T15:58:55.861Z,97864.19
2023-04-02T16:01:59.104Z,97872.38
2023-04-02T16:05:03.513Z,97873.97
2023-04-02T16:08:36.785Z,97879.59
2023-04-02T16:11:27.367Z,97887.31
2023-04-02T16:14:28.119Z,97884.16
2023-04-02T16:17:25.868Z,97895.28
2023-04-02T16:20:27.367Z,97898.88
2023-04-02T16:23:22.712Z,97910.00
2023-04-02T16:26:29.465Z,97916.88
2023-04-02T16:29:55.689Z,97911.72
2023-04-02T16:33:06.621Z,97925.66
2023-04-02T16:36:14.594Z,97942.41
2023-04-02T16:39:20.677Z,97949.63
2023-04-02T16:42:26.770Z,97952.44
2023-04-02T16:45:31.012Z,97958.88
2023-04-02T16:48:34.477Z,97958.09
2023-04-02T16:51:39.085Z,97959.59
2023-04-02T16:54:41.488Z,97960.19
2023-04-02T16:57:45.950Z,97976.38
2023-04-02T17:00:45.606Z,97981.63
2023-04-02T17:03:57.163Z,97997.63
2023-04-02T17:07:01.349Z,97997.00
2023-04-02T17:09:53.343Z,98008.75
2023-04-02T17:12:48.310Z,98017.81
2023-04-02T17:15:40.204Z,98018.13
2023-04-02T17:18:29.401Z,98026.78
2023-04-02T17:21:24.996Z,98037.63
2023-04-02T17:24:27.726Z,98041.63
2023-04-02T17:27:26.568Z,98050.81
2023-04-02T17:30:23.504Z,98062.47
2023-04-02T17:33:14.290Z,98061.44
2023-04-02T17:36:22.227Z,98076.00
2023-04-02T17:39:23.405Z,98065.31
2023-04-02T17:42:22.174Z,98069.13
2023-04-02T17:45:21.900Z,98081.09
2023-04-02T17:48:22.514Z,98084.34
2023-04-02T17:51:21.991Z,98102.28
2023-04-02T17:54:32.998Z,98090.31
2023-04-02T17:57:43.873Z,98100.88
2023-04-02T18:00:47.544Z,98117.88
2023-04-02T18:03:58.190Z,98129.47
2023-04-02T18:07:00.022Z,98129.13
2023-04-02T18:10:04.373Z,98133.47
2023-04-02T18:13:01.624Z,98131.81
2023-04-02T18:16:19.451Z,98136.34
2023-04-02T18:19:19.181Z,98145.84
2023-04-02T18:22:20.615Z,98158.03
2023-04-02T18:25:28.718Z,98158.25
2023-04-02T18:28:49.188Z,98170.16
2023-04-02T18:31:49.558Z,98169.59
2023-04-02T18:34:54.537Z,98167.44
2023-04-02T18:38:09.185Z,98174.91
2023-04-02T18:41:12.243Z,98189.78
2023-04-02T18:44:20.218Z,98191.38
2023-04-02T18:47:20.882Z,98198.41
2023-04-02T18:50:19.453Z,98193.84
2023-04-02T18:53:14.353Z,98205.69
2023-04-02T18:56:10.195Z,98204.91
2023-04-02T18:59:15.591Z,98216.78
2023-04-02T19:02:32.389Z,98216.50
2023-04-02T19:05:33.275Z,98224.59
2023-04-02T19:08:30.244Z,98226.75
2023-04-02T19:11:28.751Z,98230.53
2023-04-02T19:14:19.918Z,98237.78
2023-04-02T19:17:18.180Z,98239.94
2023-04-02T19:20:23.922Z,98238.31
2023-04-02T19:23:36.435Z,98242.31
2023-04-02T19:26:40.084Z,98248.78
2023-04-02T19:29:45.057Z,98258.75
2023-04-02T19:32:53.009Z,98251.19
2023-04-02T19:35:48.986Z,98254.22
2023-04-02T19:39:05.516Z,98257.97
2023-04-02T19:42:04.348Z,98256.88
2023-04-02T19:44:55.411Z,98257.13
2023-04-02T19:47:44.431Z,98266.28
2023-04-02T19:50:33.422Z,98270.06
2023-04-02T19:53:22.426Z,98274.13
2023-04-02T19:56:11.584Z,98276.81
2023-04-02T19:59:07.641Z,98280.03
2023-04-02T20:02:06.601Z,98282.41
2023-04-02T20:04:56.561Z,98283.72
2023-04-02T20:07:46.027Z,98289.13
2023-04-02T20:10:35.252Z,98293.19
2023-04-02T20:13:24.311Z,98292.66
2023-04-02T20:16:14.899Z,98297.28
2023-04-02T20:19:04.171Z,98307.25
2023-04-02T20:21:53.159Z,98305.91
2023-04-02T20:24:42.708Z,98304.81
2023-04-02T20:27:32.465Z,98306.41
2023-04-02T20:30:21.606Z,98311.25
2023-04-02T20:33:14.005Z,98314.22
2023-04-02T20:36:06.727Z,98320.44
2023-04-02T20:38:57.395Z,98327.19
2023-04-02T20:41:46.743Z,98327.19
2023-04-02T20:44:36.097Z,98328.84
2023-04-02T20:47:24.931Z,98336.66
2023-04-02T20:50:15.779Z,98353.09
2023-04-02T20:53:04.780Z,98356.81
2023-04-02T20:55:53.922Z,98349.84
2023-04-02T20:58:44.642Z,98360.91
2023-04-02T21:01:33.579Z,98368.16
2023-04-02T21:04:22.653Z,98368.97
2023-04-02T21:07:13.027Z,98367.34
2023-04-02T21:10:02.043Z,98376.50
2023-04-02T21:12:51.072Z,98380.00
2023-04-02T21:15:43.561Z,98380.03
2023-04-02T21:18:32.884Z,98384.06
2023-04-02T21:21:23.842Z,98384.88
2023-04-02T21:24:14.206Z,98384.84
2023-04-02T21:27:03.096Z,98384.06
2023-04-02T21:29:51.935Z,98385.94
2023-04-02T21:32:40.989Z,98382.16
2023-04-02T21:35:29.939Z,98383.50
2023-04-02T21:38:18.821Z,98389.44
2023-04-02T21:41:15.323Z,98391.03
2023-04-02T21:44:07.507Z,98377.56
2023-04-02T21:46:56.509Z,98380.28
2023-04-02T21:49:45.420Z,98373.56
2023-04-02T21:52:34.288Z,98384.31
2023-04-02T21:55:23.226Z,98391.06
2023-04-02T21:58:13.487Z,98382.97
2023-04-02T22:01:02.821Z,98385.94
2023-04-02T22:03:52.548Z,98384.59
2023-04-02T22:06:43.476Z,98387.81
2023-04-02T22:09:32.360Z,98391.59
2023-04-02T22:12:21.568Z,98385.69
2023-04-02T22:15:12.989Z,98390.81
2023-04-02T22:18:02.002Z,98401.03
2023-04-02T22:20:55.454Z,98403.44
2023-04-02T22:23:45.971Z,98402.91
2023-04-02T22:26:36.387Z,98404.53
2023-04-02T22:29:25.756Z,98413.41
2023-04-02T22:32:16.173Z,98417.47
2023-04-02T22:35:05.573Z,98412.34
2023-04-02T22:37:54.391Z,98418.25
2023-04-02T22:40:43.269Z,98414.75
2023-04-02T22:43:32.190Z,98415.56
2023-04-02T22:46:22.150Z,98425.75
2023-04-02T22:49:12.671Z,98411.78
2023-04-02T22:52:01.683Z,98416.63
2023-04-02T22:54:50.657Z,98418.00
2023-04-02T22:57:39.858Z,98414.75
2023-04-02T23:00:28.817Z,98416.91
2023-04-02T23:03:17.864Z,98417.97
2023-04-02T23:06:11.542Z,98414.97
2023-04-02T23:09:00.546Z,98428.41
2023-04-02T23:11:49.528Z,98429.50
2023-04-02T23:14:38.446Z,98430.03
2023-04-02T23:17:27.584Z,98437.84
2023-04-02T23:20:16.556Z,98438.41
2023-04-02T23:23:07.655Z,98435.94
2023-04-02T23:26:06.201Z,98438.63
2023-04-02T23:28:55.256Z,98432.69
2023-04-02T23:31:44.435Z,98433.03
2023-04-02T23:34:33.450Z,98429.78
2023-04-02T23:37:22.357Z,98427.94
2023-04-02T23:40:13.063Z,98428.97
2023-04-02T23:43:02.128Z,98429.72
2023-04-02T23:45:51.574Z,98431.31
2023-04-02T23:48:40.523Z,98430.56
2023-04-02T23:51:32.433Z,98427.28
2023-04-02T23:54:21.413Z,98417.34
2023-04-02T23:57:12.025Z,98426.03
